Time;durP1;ratioP1;P1;durP2;ratioP2;P2;SDS_P1;SDS_P2;PMS_P1;PMS_P2;Temp;Humidity;BMP_temperature;BMP_pressure;BME280_temperature;BME280_humidity;BME280_pressure;Samples;Min_cycle;Max_cycle;Signal;HPM_P1;HPM_P2
2023/06/20 05:27:51;;;;;;;;;9.00;6.33;;;;;22.31;62.32;100643.63;5077575;27;46064;-73
2023/06/20 05:30:16;;;;;;;;;5.00;5.00;;;;;22.43;61.91;100640.66;5068831;27;45355;-72
2023/06/20 05:32:42;;;;;;;;;5.33;5.00;;;;;22.58;61.55;100638.16;5064358;27;45500;-71
2023/06/20 05:35:08;;;;;;;;;8.00;6.00;;;;;22.71;61.66;100633.13;5069817;27;45422;-72
2023/06/20 05:37:34;;;;;;;;;9.00;8.00;;;;;22.88;61.35;100638.56;5065590;28;45915;-73
2023/06/20 05:39:59;;;;;;;;;6.67;5.00;;;;;23.01;61.09;100638.09;5067677;28;45436;-73
2023/06/20 05:42:25;;;;;;;;;8.00;7.00;;;;;23.14;61.27;100624.88;5061374;27;45448;-72
2023/06/20 05:44:50;;;;;;;;;10.67;7.00;;;;;23.26;60.78;100633.50;5064993;28;45679;-72
2023/06/20 05:47:18;;;;;;;;;6.33;6.33;;;;;23.38;60.63;100634.06;5066608;28;54223;-71
2023/06/20 05:49:47;;;;;;;;;7.33;7.00;;;;;23.51;60.33;100635.41;5064196;28;45539;-71
2023/06/20 05:52:13;;;;;;;;;10.33;9.00;;;;;23.59;60.29;100637.25;5062379;27;45466;-71
2023/06/20 05:54:41;;;;;;;;;5.00;5.00;;;;;23.65;60.35;100633.84;5067995;28;45628;-71
2023/06/20 05:57:07;;;;;;;;;8.33;8.33;;;;;23.76;60.40;100636.22;5067058;28;47009;-71
2023/06/20 05:59:33;;;;;;;;;6.00;6.00;;;;;23.81;59.85;100628.41;5065622;27;45590;-71
2023/06/20 06:01:58;;;;;;;;;9.33;7.67;;;;;23.86;59.77;100621.63;5067952;28;45703;-71
2023/06/20 06:04:25;;;;;;;;;8.67;7.00;;;;;23.94;59.73;100632.44;5068231;27;45469;-71
2023/06/20 06:06:51;;;;;;;;;6.00;6.00;;;;;24.00;59.58;100636.31;5068155;27;45503;-72
2023/06/20 06:09:16;;;;;;;;;7.00;7.00;;;;;24.03;59.26;100625.97;5064622;28;45442;-72
2023/06/20 06:11:41;;;;;;;;;10.33;9.33;;;;;24.09;58.99;100632.59;5059691;27;45515;-72
2023/06/20 06:14:07;;;;;;;;;9.33;8.67;;;;;24.11;59.15;100624.28;5065253;27;45411;-70
2023/06/20 06:16:32;;;;;;;;;7.67;6.33;;;;;24.14;59.04;100630.19;5058585;27;48490;-71
2023/06/20 06:18:59;;;;;;;;;8.00;8.00;;;;;24.11;59.07;100622.41;5064739;27;45320;-73
2023/06/20 06:21:25;;;;;;;;;8.67;7.33;;;;;24.17;59.42;100627.16;5067989;27;45474;-76
2023/06/20 06:23:50;;;;;;;;;9.00;8.33;;;;;24.29;59.12;100632.16;5067941;28;45622;-74
2023/06/20 06:26:16;;;;;;;;;7.00;7.00;;;;;24.38;59.21;100638.41;5068835;28;45910;-74
2023/06/20 06:28:41;;;;;;;;;7.00;5.33;;;;;24.47;58.38;100643.63;5068430;28;45826;-74
2023/06/20 06:31:13;;;;;;;;;9.00;7.67;;;;;24.57;58.37;100648.81;5060661;28;45610;-73
2023/06/20 06:33:40;;;;;;;;;6.33;6.33;;;;;24.63;58.13;100640.97;5062068;28;45514;-74
2023/06/20 06:36:05;;;;;;;;;9.33;7.67;;;;;24.73;58.03;100649.75;5066597;27;47346;-74
2023/06/20 06:38:32;;;;;;;;;7.33;7.00;;;;;24.81;57.58;100655.13;5056073;28;45623;-72
2023/06/20 06:40:59;;;;;;;;;10.33;9.67;;;;;24.84;57.89;100659.38;5053429;28;45933;-72
2023/06/20 06:43:25;;;;;;;;;15.33;12.00;;;;;24.83;57.95;100660.41;5055400;28;45545;-72
2023/06/20 06:45:51;;;;;;;;;15.00;12.33;;;;;24.81;58.48;100654.28;5047558;28;47017;-74
2023/06/20 06:48:16;;;;;;;;;10.67;10.00;;;;;24.83;58.46;100658.53;5054317;28;45451;-72
2023/06/20 06:50:43;;;;;;;;;11.67;11.00;;;;;24.85;58.43;100647.50;5053651;28;45878;-72
2023/06/20 06:53:09;;;;;;;;;12.33;12.33;;;;;24.81;57.85;100643.44;5050197;28;45480;-72
2023/06/20 06:55:34;;;;;;;;;10.33;10.33;;;;;24.84;57.91;100648.50;5052994;28;46164;-73
2023/06/20 06:58:00;;;;;;;;;10.00;10.00;;;;;24.86;58.35;100649.19;5051650;28;54652;-71
2023/06/20 07:00:26;;;;;;;;;10.33;10.00;;;;;24.84;58.51;100637.66;5053759;28;45440;-73
2023/06/20 07:02:51;;;;;;;;;12.33;10.00;;;;;24.88;58.46;100641.69;5048203;28;45527;-73
2023/06/20 07:05:16;;;;;;;;;14.00;13.00;;;;;24.91;58.22;100652.22;5053293;28;45562;-73
2023/06/20 07:07:42;;;;;;;;;9.00;8.67;;;;;24.94;57.75;100651.00;5052766;28;45392;-72
2023/06/20 07:10:07;;;;;;;;;14.00;12.33;;;;;24.97;58.33;100648.75;5050930;28;58383;-73
2023/06/20 07:12:33;;;;;;;;;9.33;9.33;;;;;24.99;57.70;100648.59;5053110;28;45629;-72
2023/06/20 07:14:58;;;;;;;;;9.00;9.00;;;;;25.02;57.94;100655.53;5053495;28;45974;-73
2023/06/20 07:17:24;;;;;;;;;11.67;10.67;;;;;25.03;57.74;100658.06;5053210;28;45529;-73
2023/06/20 07:19:50;;;;;;;;;14.67;11.67;;;;;25.08;57.78;100665.66;5054215;28;45521;-73
2023/06/20 07:22:15;;;;;;;;;9.67;9.67;;;;;25.09;58.17;100660.06;5050321;28;45788;-74
2023/06/20 07:24:41;;;;;;;;;15.00;12.67;;;;;25.12;57.85;100676.00;5044842;28;46163;-74
2023/06/20 07:27:06;;;;;;;;;13.00;11.67;;;;;25.14;57.59;100678.53;5045525;28;45997;-73
2023/06/20 07:29:31;;;;;;;;;12.67;11.67;;;;;25.17;57.77;100689.00;5055070;28;45468;-73
2023/06/20 07:31:57;;;;;;;;;9.00;9.00;;;;;25.20;57.57;100687.81;5052190;28;45714;-74
2023/06/20 07:34:22;;;;;;;;;11.33;11.33;;;;;25.22;57.16;100688.47;5050442;28;55644;-73
2023/06/20 07:36:48;;;;;;;;;12.67;12.00;;;;;25.26;57.14;100696.06;5052665;28;45481;-72
2023/06/20 07:39:13;;;;;;;;;9.00;9.00;;;;;25.30;57.31;100699.25;5053768;28;46947;-73
2023/06/20 07:41:39;;;;;;;;;10.00;10.00;;;;;25.32;56.67;100693.66;5049190;28;45622;-74
2023/06/20 07:44:04;;;;;;;;;12.67;12.67;;;;;25.35;56.69;100693.31;5054183;28;45957;-74
2023/06/20 07:46:30;;;;;;;;;12.67;10.00;;;;;25.38;56.89;100696.50;5051043;28;45584;-74
2023/06/20 07:48:56;;;;;;;;;12.00;12.00;;;;;25.42;56.72;100699.69;5052418;28;45663;-73
2023/06/20 07:51:21;;;;;;;;;10.33;10.00;;;;;25.46;56.47;100694.75;5051532;28;45325;-74
2023/06/20 07:53:46;;;;;;;;;15.00;14.00;;;;;25.49;56.30;100695.22;5054352;28;46461;-74
2023/06/20 07:56:12;;;;;;;;;10.67;9.33;;;;;25.52;56.57;100696.72;5052771;28;45331;-74
2023/06/20 07:58:38;;;;;;;;;14.00;11.33;;;;;25.51;56.06;100689.59;5050447;28;45565;-74
2023/06/20 08:01:03;;;;;;;;;12.67;11.00;;;;;25.57;56.26;100694.34;5053295;28;45719;-73
2023/06/20 08:03:28;;;;;;;;;16.00;13.33;;;;;25.58;55.77;100698.72;5052750;28;45371;-74
2023/06/20 08:05:54;;;;;;;;;12.00;12.00;;;;;25.61;56.22;100698.38;5050162;28;57737;-74
2023/06/20 08:08:19;;;;;;;;;13.00;12.33;;;;;25.63;55.44;100690.03;5053354;28;45926;-74
2023/06/20 08:10:44;;;;;;;;;13.33;13.33;;;;;25.63;56.09;100690.88;5045468;28;45527;-71
2023/06/20 08:13:10;;;;;;;;;12.67;12.33;;;;;25.56;55.42;100675.50;5045923;28;52523;-74
2023/06/20 08:15:35;;;;;;;;;14.67;12.33;;;;;25.64;55.32;100680.84;5050459;28;45424;-72
2023/06/20 08:18:00;;;;;;;;;12.00;12.00;;;;;25.68;55.13;100686.75;5051087;28;45478;-73
2023/06/20 08:20:26;;;;;;;;;14.67;13.67;;;;;25.70;54.88;100684.72;5052639;28;45517;-73
2023/06/20 08:22:51;;;;;;;;;12.33;11.67;;;;;25.70;55.67;100680.13;5051944;28;45745;-73
2023/06/20 08:25:16;;;;;;;;;14.00;14.00;;;;;25.71;54.98;100675.53;5053473;28;45523;-73
2023/06/20 08:27:42;;;;;;;;;14.67;12.33;;;;;25.72;54.71;100679.94;5046771;28;45961;-73
2023/06/20 08:30:08;;;;;;;;;9.67;9.67;;;;;25.73;54.93;100673.47;5049887;28;56863;-73
2023/06/20 08:32:33;;;;;;;;;13.67;12.67;;;;;25.75;55.12;100674.97;5051100;28;45368;-74
2023/06/20 08:34:58;;;;;;;;;16.00;13.67;;;;;25.76;55.05;100662.22;5052177;28;54161;-73
2023/06/20 08:37:24;;;;;;;;;14.67;13.67;;;;;25.76;54.98;100660.34;5052878;28;45640;-73
2023/06/20 08:39:49;;;;;;;;;15.00;14.00;;;;;25.79;55.16;100665.41;5053502;28;52598;-73
2023/06/20 08:42:15;;;;;;;;;11.67;11.67;;;;;25.82;54.85;100669.63;5057944;27;45680;-74
2023/06/20 08:44:40;;;;;;;;;16.67;15.67;;;;;25.83;54.68;100660.44;5050546;28;45663;-73
2023/06/20 08:47:06;;;;;;;;;12.33;11.00;;;;;25.86;54.63;100651.06;5039723;28;45539;-73
2023/06/20 08:49:31;;;;;;;;;18.67;13.67;;;;;25.86;54.41;100656.50;5050199;28;45433;-74
2023/06/20 08:52:00;;;;;;;;;15.33;13.33;;;;;25.89;55.02;100647.97;5050048;28;53955;-73
2023/06/20 08:54:31;;;;;;;;;12.67;12.67;;;;;25.94;55.08;100652.88;5053322;28;45466;-73
2023/06/20 08:56:56;;;;;;;;;13.00;11.00;;;;;25.95;54.69;100658.09;5051645;28;45394;-72
2023/06/20 08:59:22;;;;;;;;;13.00;13.00;;;;;25.97;55.04;100664.22;5051793;28;45518;-74
2023/06/20 09:01:47;;;;;;;;;15.33;15.33;;;;;25.99;54.66;100661.31;5048787;28;45384;-73
2023/06/20 09:04:13;;;;;;;;;15.67;14.67;;;;;25.99;55.38;100656.69;5052460;28;45399;-73
2023/06/20 09:06:38;;;;;;;;;14.67;14.67;;;;;26.01;55.34;100649.22;5051718;28;45358;-74
2023/06/20 09:09:15;;;;;;;;;14.67;14.67;;;;;26.00;55.18;100643.97;5052907;28;45551;-74
2023/06/20 09:11:47;;;;;;;;;15.00;13.33;;;;;26.03;54.96;100652.56;5044750;28;46662;-74
2023/06/20 09:14:12;;;;;;;;;14.33;14.00;;;;;26.02;55.10;100645.47;5051262;28;45543;-73
2023/06/20 09:16:37;;;;;;;;;12.67;12.67;;;;;26.05;55.49;100649.69;5050106;28;49497;-74
2023/06/20 09:19:03;;;;;;;;;18.33;15.33;;;;;26.03;54.96;100638.97;5051846;28;45834;-74
2023/06/20 09:21:28;;;;;;;;;14.33;14.33;;;;;26.09;55.06;100641.97;5051206;28;46509;-72
2023/06/20 10:01:49;;;;;;;;;14.33;14.33;;;;;24.32;58.80;100686.06;5069761;27;45763;-69
2023/06/20 10:04:17;;;;;;;;;17.33;14.00;;;;;24.42;58.78;100691.28;5069721;27;45407;-69
2023/06/20 10:06:42;;;;;;;;;16.33;14.33;;;;;24.55;58.62;100686.13;5069090;28;45478;-69
2023/06/20 10:09:08;;;;;;;;;17.00;16.33;;;;;24.70;58.52;100690.81;5066168;28;45383;-71
2023/06/20 10:11:36;;;;;;;;;13.67;13.67;;;;;24.85;58.44;100693.66;5066065;28;46053;-71
2023/06/20 10:14:03;;;;;;;;;12.67;12.67;;;;;24.90;57.32;100688.53;5067393;28;45707;-71
2023/06/20 10:16:29;;;;;;;;;15.00;14.33;;;;;25.09;57.13;100711.66;5063691;28;45643;-71
2023/06/20 10:18:55;;;;;;;;;15.33;15.00;;;;;25.21;57.08;100698.50;5058755;27;45500;-71
2023/06/20 10:21:59;;;;;;;;;14.00;14.00;;;;;25.34;56.66;100702.50;5068223;28;45838;-71
2023/06/20 10:24:27;;;;;;;;;16.00;14.67;;;;;25.44;57.01;100704.94;5058953;28;45462;-71
2023/06/20 10:27:03;;;;;;;;;18.67;15.33;;;;;25.53;56.23;100703.84;5067837;28;45694;-71
2023/06/20 10:29:29;;;;;;;;;12.67;12.67;;;;;25.61;56.38;100702.97;5061143;28;45699;-71
2023/06/20 10:32:05;;;;;;;;;15.00;12.67;;;;;25.68;55.98;100709.38;5065582;27;45767;-72
2023/06/20 10:34:39;;;;;;;;;12.33;11.33;;;;;25.77;56.30;100710.13;5059037;28;45547;-72
2023/06/20 10:37:16;;;;;;;;;14.33;13.00;;;;;25.82;55.99;100710.41;5064314;28;45752;-72
2023/06/20 10:39:55;;;;;;;;;13.33;11.00;;;;;25.86;55.46;100700.84;5060138;27;45555;-73
2023/06/20 10:42:42;;;;;;;;;11.67;11.67;;;;;25.94;55.85;100704.53;5061688;28;47038;-73
2023/06/20 10:45:29;;;;;;;;;12.00;12.00;;;;;25.96;55.66;100705.19;5058442;28;45632;-72
2023/06/20 10:47:56;;;;;;;;;13.33;13.33;;;;;26.01;55.29;100711.75;5061367;28;45628;-73
2023/06/20 10:50:22;;;;;;;;;12.67;12.67;;;;;26.06;55.56;100711.19;5065692;28;46927;-71
2023/06/20 10:52:48;;;;;;;;;17.00;15.00;;;;;26.10;54.76;100714.38;5066203;28;46253;-72
2023/06/20 10:55:16;;;;;;;;;13.67;12.67;;;;;26.13;55.44;100711.28;5055324;28;45533;-73
2023/06/20 10:57:48;;;;;;;;;13.67;13.00;;;;;26.15;55.13;100715.50;5067911;28;45470;-72
2023/06/20 11:00:18;;;;;;;;;16.67;13.67;;;;;26.18;54.41;100708.84;5053975;28;45562;-71
2023/06/20 11:02:48;;;;;;;;;13.67;12.33;;;;;26.21;54.29;100703.03;5057245;28;45764;-71
2023/06/20 11:05:13;;;;;;;;;13.00;12.00;;;;;26.23;54.67;100706.41;5067004;28;45853;-71
2023/06/20 11:07:51;;;;;;;;;10.33;10.00;;;;;26.25;54.79;100712.56;5067697;28;45537;-71
2023/06/20 11:10:17;;;;;;;;;11.00;9.33;;;;;26.26;53.98;100706.06;5065640;28;45471;-70
2023/06/20 11:12:43;;;;;;;;;10.50;10.50;;;;;26.28;54.48;100703.16;5042242;28;45482;-73
2023/06/20 11:15:25;;;;;;;;;12.33;10.33;;;;;26.27;53.82;100693.31;5051401;28;45446;-72
2023/06/20 11:17:51;;;;;;;;;7.67;7.33;;;;;26.29;53.85;100692.06;5048279;28;46706;-73
2023/06/20 11:20:18;;;;;;;;;9.33;9.33;;;;;26.28;54.05;100703.16;5054109;28;45479;-70
2023/06/20 11:22:45;;;;;;;;;11.33;10.33;;;;;26.30;54.47;100698.38;5037225;28;46231;-72
2023/06/20 11:25:10;;;;;;;;;9.67;9.33;;;;;26.29;53.78;100711.13;5029913;28;45713;-70
2023/06/20 11:27:36;;;;;;;;;9.00;9.00;;;;;26.30;54.06;100712.84;5050608;28;45968;-73
2023/06/20 11:30:02;;;;;;;;;9.00;8.00;;;;;26.28;54.05;100723.03;5052662;28;45500;-73
2023/06/20 11:32:28;;;;;;;;;9.33;9.00;;;;;26.28;53.75;100712.16;5049642;28;45690;-72
2023/06/20 11:34:56;;;;;;;;;7.00;7.00;;;;;26.17;53.53;100697.13;5041077;28;45524;-73
2023/06/20 11:37:22;;;;;;;;;11.33;10.00;;;;;26.16;54.31;100698.16;5049437;28;45743;-72
2023/06/20 11:39:47;;;;;;;;;9.00;8.00;;;;;26.14;54.72;100685.78;5048865;28;45489;-71
2023/06/20 11:42:15;;;;;;;;;8.33;8.33;;;;;26.29;54.38;100722.00;5054272;28;46849;-72
2023/06/20 11:44:40;;;;;;;;;10.00;8.67;;;;;26.13;54.15;100690.38;5049548;28;45467;-72
2023/06/20 11:47:06;;;;;;;;;8.00;8.00;;;;;26.12;54.85;100669.63;5042918;28;45457;-72
2023/06/20 11:49:33;;;;;;;;;8.67;8.67;;;;;26.24;54.26;100696.38;5048864;28;45488;-71
2023/06/20 11:52:02;;;;;;;;;6.33;6.33;;;;;26.05;54.46;100666.84;5054171;28;45516;-72
2023/06/20 11:54:27;;;;;;;;;10.00;10.00;;;;;26.28;54.39;100701.28;5052268;28;45548;-72
2023/06/20 11:56:54;;;;;;;;;10.00;10.00;;;;;26.13;55.14;100663.19;5054006;28;45522;-72
2023/06/20 11:59:23;;;;;;;;;9.67;8.67;;;;;26.14;54.88;100666.72;5053735;28;45467;-71
2023/06/20 12:01:49;;;;;;;;;10.00;10.00;;;;;26.05;54.62;100660.56;5052691;28;48197;-71
2023/06/20 12:04:19;;;;;;;;;10.00;9.00;;;;;26.28;55.09;100700.44;5049992;28;45435;-71
2023/06/20 12:06:47;;;;;;;;;9.33;9.00;;;;;26.09;54.96;100661.88;5054218;28;45432;-72
2023/06/20 12:09:17;;;;;;;;;11.00;9.00;;;;;26.29;54.49;100696.69;5051982;28;45616;-73
2023/06/20 12:11:53;;;;;;;;;10.33;9.00;;;;;26.28;54.53;100693.13;5053955;28;46190;-73
2023/06/20 12:14:23;;;;;;;;;9.67;8.33;;;;;26.25;54.47;100685.34;5034302;28;45368;-72
2023/06/20 12:16:49;;;;;;;;;10.00;8.67;;;;;26.33;54.64;100699.88;5049378;28;45829;-73
2023/06/20 12:19:15;;;;;;;;;10.00;8.33;;;;;26.33;54.99;100706.16;5046497;28;45482;-73
2023/06/20 12:21:42;;;;;;;;;10.67;10.67;;;;;26.34;54.89;100702.41;5048765;28;47138;-72
2023/06/20 12:24:08;;;;;;;;;9.67;9.67;;;;;26.35;55.15;100708.72;5047562;28;45416;-72
2023/06/20 12:26:34;;;;;;;;;10.00;8.00;;;;;26.36;54.33;100708.50;5052045;28;45542;-72
2023/06/20 12:29:00;;;;;;;;;9.00;9.00;;;;;26.37;54.42;100712.94;5045752;28;45293;-72
2023/06/20 12:31:25;;;;;;;;;8.33;8.33;;;;;26.38;54.47;100708.31;5052773;28;52183;-72
2023/06/20 12:33:51;;;;;;;;;8.67;8.67;;;;;26.35;54.53;100704.09;5052338;28;46462;-72
2023/06/20 12:36:17;;;;;;;;;9.00;9.00;;;;;26.37;54.96;100704.75;5050750;28;45610;-72
2023/06/20 12:38:42;;;;;;;;;9.33;8.67;;;;;26.39;54.39;100701.84;5048536;28;45447;-71
2023/06/20 12:41:10;;;;;;;;;9.00;9.00;;;;;26.37;54.20;100706.63;5051114;28;46213;-72
2023/06/20 12:43:36;;;;;;;;;10.33;10.33;;;;;26.39;54.33;100710.84;5043703;28;45514;-72
2023/06/20 12:46:01;;;;;;;;;7.33;6.33;;;;;26.41;54.70;100707.94;5047103;28;45483;-72
2023/06/20 12:48:26;;;;;;;;;8.00;7.33;;;;;26.41;54.63;100721.53;5048946;28;46026;-72
2023/06/20 12:50:52;;;;;;;;;5.33;5.33;;;;;26.43;54.07;100730.34;5048078;28;45626;-73
2023/06/20 12:53:17;;;;;;;;;7.00;7.00;;;;;26.44;54.53;100729.31;5052384;28;45369;-73
2023/06/20 12:55:43;;;;;;;;;8.00;8.00;;;;;26.43;54.06;100725.78;5053708;28;45450;-72
2023/06/20 12:58:14;;;;;;;;;9.33;8.33;;;;;26.47;53.96;100736.25;5053799;28;45375;-72
2023/06/20 13:00:41;;;;;;;;;8.00;8.00;;;;;26.47;53.99;100730.81;5051382;28;47157;-71
2023/06/20 13:03:08;;;;;;;;;7.67;7.67;;;;;26.46;54.24;100727.28;5052453;28;45438;-72
2023/06/20 13:05:35;;;;;;;;;8.33;7.00;;;;;26.41;54.57;100722.38;5051945;28;45429;-72
2023/06/20 13:08:02;;;;;;;;;9.67;9.67;;;;;26.48;53.89;100733.34;5046502;28;45498;-71
2023/06/20 13:10:28;;;;;;;;;8.00;6.67;;;;;26.50;54.41;100736.75;5049429;28;45493;-72
2023/06/20 13:12:56;;;;;;;;;10.00;8.00;;;;;26.52;54.38;100739.28;5046447;28;45444;-72
2023/06/20 13:15:24;;;;;;;;;9.67;8.00;;;;;26.52;54.25;100725.69;5039491;28;45384;-72
2023/06/20 13:17:54;;;;;;;;;10.00;7.33;;;;;26.52;53.70;100725.69;5062464;27;45330;-72
2023/06/20 13:20:20;;;;;;;;;8.67;8.67;;;;;26.53;54.35;100725.47;5040589;28;46151;-71
2023/06/20 13:22:45;;;;;;;;;8.67;8.00;;;;;26.53;53.61;100711.03;5043995;28;45463;-71
2023/06/20 13:25:10;;;;;;;;;7.00;7.00;;;;;26.55;54.31;100712.53;5055736;28;57540;-71
2023/06/20 13:27:36;;;;;;;;;6.67;6.67;;;;;26.55;54.27;100707.09;5042256;28;45432;-71
2023/06/20 13:30:01;;;;;;;;;8.67;8.33;;;;;26.55;53.69;100706.22;5042933;28;46046;-71
2023/06/20 13:32:27;;;;;;;;;9.00;7.33;;;;;26.55;54.17;100704.38;5047382;28;45592;-71
2023/06/20 13:34:53;;;;;;;;;8.67;8.67;;;;;26.56;53.73;100695.16;5051160;28;45411;-71
2023/06/20 13:37:18;;;;;;;;;9.00;8.00;;;;;26.55;53.62;100690.75;5043539;28;45776;-71
2023/06/20 13:39:44;;;;;;;;;8.33;5.67;;;;;26.58;53.54;100690.34;5040277;28;45454;-73
2023/06/20 13:42:09;;;;;;;;;10.00;8.00;;;;;26.61;54.12;100700.03;5051718;28;45487;-71
2023/06/20 13:44:35;;;;;;;;;9.67;7.00;;;;;26.61;53.96;100701.91;5040039;28;45463;-72
2023/06/20 13:47:00;;;;;;;;;8.00;7.00;;;;;26.59;53.89;100704.81;5052131;28;45723;-71
2023/06/20 13:49:26;;;;;;;;;7.00;7.00;;;;;26.64;53.90;100721.41;5037827;28;46075;-71
2023/06/20 13:51:51;;;;;;;;;9.00;7.33;;;;;26.65;54.00;100720.38;5051894;28;45453;-71
2023/06/20 13:54:17;;;;;;;;;6.33;6.33;;;;;26.62;53.25;100715.34;5049898;28;51697;-71
2023/06/20 13:56:46;;;;;;;;;8.00;8.00;;;;;26.68;53.84;100721.88;5042674;28;45419;-73
2023/06/20 13:59:12;;;;;;;;;8.00;7.33;;;;;26.69;53.28;100721.69;5034008;28;48144;-71
2023/06/20 14:01:39;;;;;;;;;9.00;8.00;;;;;26.72;53.66;100725.91;5042638;28;45602;-71
2023/06/20 14:04:05;;;;;;;;;6.33;5.67;;;;;26.76;53.46;100716.31;5051989;28;45391;-70
2023/06/20 14:06:30;;;;;;;;;9.00;9.00;;;;;26.79;53.32;100709.66;5048198;28;45493;-70
2023/06/20 14:08:56;;;;;;;;;8.00;8.00;;;;;26.80;53.15;100714.06;5040084;28;46005;-70
2023/06/20 14:11:21;;;;;;;;;7.33;7.33;;;;;26.83;52.63;100711.81;5042409;28;45685;-71
2023/06/20 14:13:47;;;;;;;;;6.00;6.00;;;;;26.87;52.90;100714.13;5052527;28;45386;-71
2023/06/20 14:16:12;;;;;;;;;6.33;6.33;;;;;26.88;52.58;100708.50;5049305;28;45797;-71
2023/06/20 14:18:37;;;;;;;;;6.00;6.00;;;;;26.90;52.65;100706.44;5039409;28;46093;-72
2023/06/20 14:21:02;;;;;;;;;6.00;6.00;;;;;26.91;52.76;100710.84;5050970;28;45652;-71
2023/06/20 14:23:28;;;;;;;;;7.00;7.00;;;;;26.93;52.47;100714.25;5042831;28;45475;-72
2023/06/20 14:25:53;;;;;;;;;6.33;6.33;;;;;26.93;52.55;100711.53;5052762;28;45415;-71
2023/06/20 14:28:24;;;;;;;;;8.33;7.00;;;;;26.95;52.50;100719.50;5050916;28;45394;-72
2023/06/20 14:30:49;;;;;;;;;7.00;7.00;;;;;26.94;52.22;100732.28;5049806;28;45562;-71
2023/06/20 14:33:15;;;;;;;;;7.00;7.00;;;;;26.94;52.44;100736.91;5051300;28;45528;-71
2023/06/20 14:35:41;;;;;;;;;7.00;7.00;;;;;26.93;52.86;100727.00;5041982;28;45385;-71
2023/06/20 14:38:06;;;;;;;;;5.00;5.00;;;;;26.95;52.50;100739.44;5045602;28;46273;-72
2023/06/20 14:40:33;;;;;;;;;7.00;7.00;;;;;26.95;52.97;100744.88;5042870;28;45375;-72
2023/06/20 14:42:59;;;;;;;;;6.67;6.67;;;;;26.96;52.26;100740.25;5048902;28;45556;-72
2023/06/20 14:45:24;;;;;;;;;7.00;7.00;;;;;26.97;52.17;100744.66;5050498;28;45461;-72
2023/06/20 14:47:50;;;;;;;;;6.67;6.00;;;;;26.96;52.20;100745.69;5051526;28;59247;-71
2023/06/20 14:50:15;;;;;;;;;6.33;6.00;;;;;26.96;52.54;100746.56;5055582;28;45449;-70
2023/06/20 14:52:41;;;;;;;;;5.67;5.33;;;;;26.93;53.00;100754.25;5053418;28;45835;-70
2023/06/20 14:55:06;;;;;;;;;8.00;8.00;;;;;26.92;53.00;100756.09;5053623;28;45638;-71
2023/06/20 14:57:32;;;;;;;;;9.00;7.00;;;;;26.91;52.88;100761.75;5053639;28;46205;-70
2023/06/20 14:59:57;;;;;;;;;10.33;6.67;;;;;26.90;52.44;100754.63;5049760;28;45649;-70
2023/06/20 15:02:23;;;;;;;;;9.67;8.00;;;;;26.88;52.38;100740.31;5049935;28;45423;-70
2023/06/20 15:04:48;;;;;;;;;6.33;6.00;;;;;26.86;53.03;100740.53;5053652;28;45474;-70
2023/06/20 15:07:13;;;;;;;;;7.67;6.00;;;;;26.82;53.08;100734.63;5050217;28;46168;-70
2023/06/20 15:09:39;;;;;;;;;8.00;7.67;;;;;26.81;52.99;100746.53;5053954;28;45463;-70
2023/06/20 15:12:05;;;;;;;;;6.33;6.33;;;;;26.77;53.08;100744.41;5038235;28;45454;-70
2023/06/20 15:14:30;;;;;;;;;7.67;6.67;;;;;26.77;52.71;100745.22;5054098;28;45362;-71
2023/06/20 15:16:55;;;;;;;;;5.00;5.00;;;;;26.78;52.74;100746.09;5050748;28;46994;-70
2023/06/20 15:19:21;;;;;;;;;11.00;7.00;;;;;26.76;52.66;100740.84;5054264;28;45425;-71
2023/06/20 15:21:46;;;;;;;;;7.00;7.00;;;;;26.74;52.63;100740.19;5050911;28;45381;-70
2023/06/20 15:24:12;;;;;;;;;6.33;6.33;;;;;26.74;53.03;100747.50;5047038;28;45530;-70
2023/06/20 15:26:37;;;;;;;;;5.67;5.67;;;;;26.76;52.69;100746.28;5053761;28;46242;-70
2023/06/20 15:29:02;;;;;;;;;5.00;5.00;;;;;26.77;52.53;100738.97;5055131;28;45502;-70
2023/06/20 15:31:28;;;;;;;;;6.33;6.00;;;;;26.78;53.32;100738.78;5038848;28;56316;-71
2023/06/20 15:33:53;;;;;;;;;6.33;6.00;;;;;26.79;53.18;100755.94;5053285;28;45609;-71
2023/06/20 15:36:20;;;;;;;;;5.67;5.67;;;;;26.77;53.25;100745.22;5053047;28;46938;-70
2023/06/20 15:38:45;;;;;;;;;6.00;6.00;;;;;26.79;53.20;100743.19;5053146;28;45637;-70
2023/06/20 15:41:11;;;;;;;;;4.00;4.00;;;;;26.79;52.70;100729.56;5048333;28;45415;-70
2023/06/20 15:43:37;;;;;;;;;6.33;6.33;;;;;26.80;52.94;100720.34;5047784;28;45408;-70
2023/06/20 15:46:03;;;;;;;;;6.33;6.33;;;;;26.79;52.82;100715.97;5053308;28;45367;-71
2023/06/20 15:48:29;;;;;;;;;5.67;5.67;;;;;26.80;52.59;100717.63;5054784;28;45363;-71
2023/06/20 15:50:55;;;;;;;;;6.00;6.00;;;;;26.80;53.04;100731.25;5054163;28;45482;-69
2023/06/20 18:53:51;;;;;;;;;7.67;7.33;;;;;24.03;57.25;100823.88;5072284;27;45504;-69
2023/06/20 18:56:17;;;;;;;;;9.67;8.33;;;;;24.19;57.18;100836.59;5058380;27;45548;-70
2023/06/20 18:58:42;;;;;;;;;7.33;7.33;;;;;24.38;56.72;100836.41;5062297;27;45489;-70
2023/06/20 19:01:07;;;;;;;;;8.33;8.33;;;;;24.56;56.57;100844.38;5056738;27;45485;-70
2023/06/20 19:03:33;;;;;;;;;11.33;10.33;;;;;24.75;55.71;100848.53;5060563;28;46180;-71
2023/06/20 19:05:58;;;;;;;;;9.00;9.00;;;;;24.91;55.95;100850.38;5060163;27;45615;-71
2023/06/20 19:08:24;;;;;;;;;10.67;9.33;;;;;25.08;55.58;100853.88;5060088;27;45685;-70
2023/06/20 19:10:50;;;;;;;;;12.00;11.00;;;;;25.24;55.08;100855.69;5061206;27;45685;-71
2023/06/20 19:13:16;;;;;;;;;9.33;9.33;;;;;25.37;54.34;100849.66;5065484;27;46191;-71
2023/06/20 19:15:41;;;;;;;;;12.00;12.00;;;;;25.50;54.33;100851.78;5064922;28;46913;-71
2023/06/20 19:18:06;;;;;;;;;11.33;8.67;;;;;25.62;54.62;100837.81;5068057;28;45435;-71
2023/06/20 19:20:33;;;;;;;;;11.33;11.00;;;;;25.71;54.37;100844.88;5065459;27;45470;-71
2023/06/20 19:22:58;;;;;;;;;8.33;7.67;;;;;25.83;53.92;100848.03;5062376;27;46087;-72
2023/06/20 19:25:24;;;;;;;;;7.33;7.33;;;;;25.91;54.15;100853.41;5060673;27;45462;-72
2023/06/20 19:27:49;;;;;;;;;12.67;11.67;;;;;26.01;54.46;100855.03;5063836;27;45832;-70
2023/06/20 19:30:16;;;;;;;;;10.33;9.67;;;;;26.09;54.26;100857.69;5058543;28;45861;-71
2023/06/20 19:32:42;;;;;;;;;11.00;10.00;;;;;26.16;54.20;100863.25;5058210;28;46905;-71
2023/06/20 19:35:08;;;;;;;;;12.00;9.00;;;;;26.22;54.02;100870.66;5062156;28;45542;-70
2023/06/20 19:37:33;;;;;;;;;10.67;10.67;;;;;26.29;53.16;100863.47;5062887;27;45438;-69
2023/06/20 19:39:58;;;;;;;;;9.33;8.00;;;;;26.36;53.10;100876.38;5062318;27;45498;-70
2023/06/20 19:42:24;;;;;;;;;7.67;7.33;;;;;26.40;53.58;100873.06;5061837;27;46084;-70
2023/06/20 19:44:49;;;;;;;;;8.00;8.00;;;;;26.43;53.57;100870.00;5065389;27;45477;-70
2023/06/20 19:47:18;;;;;;;;;9.33;9.33;;;;;26.47;53.51;100886.78;5062921;27;49625;-71
2023/06/20 19:49:44;;;;;;;;;8.00;8.00;;;;;26.51;52.74;100881.81;5060828;27;45676;-71
2023/06/20 19:52:09;;;;;;;;;11.00;10.00;;;;;26.54;53.28;100884.19;5071436;27;45564;-71
2023/06/20 19:54:34;;;;;;;;;10.67;10.67;;;;;26.57;53.00;100887.38;5084827;27;45702;-71
2023/06/20 19:57:00;;;;;;;;;13.00;11.67;;;;;26.64;52.71;100900.25;5084393;27;50717;-71
2023/06/20 19:59:26;;;;;;;;;9.33;9.33;;;;;26.66;52.82;100907.19;5085267;27;45673;-71
2023/06/20 20:01:51;;;;;;;;;7.67;7.67;;;;;26.70;52.84;100918.56;5081468;27;60868;-71
2023/06/20 20:04:16;;;;;;;;;9.67;9.67;;;;;26.72;52.25;100912.94;5068970;27;46820;-71
2023/06/20 20:06:42;;;;;;;;;10.00;10.00;;;;;26.74;52.08;100917.16;5066147;28;45665;-70
2023/06/20 20:09:08;;;;;;;;;11.00;11.00;;;;;26.77;52.62;100927.66;5063569;27;45510;-71
2023/06/20 20:11:33;;;;;;;;;9.33;8.33;;;;;26.79;52.53;100917.44;5070315;27;47030;-71
2023/06/20 20:13:59;;;;;;;;;14.00;10.67;;;;;26.82;52.65;100930.66;5066838;27;45937;-71
2023/06/20 20:16:24;;;;;;;;;11.00;10.00;;;;;26.84;51.91;100938.66;5066622;28;45503;-71
2023/06/20 20:18:49;;;;;;;;;9.00;9.00;;;;;26.86;51.74;100943.91;5070248;28;45604;-71
2023/06/20 20:21:15;;;;;;;;;9.33;8.67;;;;;26.86;52.17;100946.63;5067298;28;53564;-71